sensor_id;sensor_type;location;lat;lon;timestamp;P1;durP1;ratioP1;P2;durP2;ratioP2
71973;SDS011;59840;52.122;5.404;2023-05-10T00:00:42;17.30;;;8.68;;
71973;SDS011;59840;52.122;5.404;2023-05-10T00:03:09;15.70;;;8.13;;
71973;SDS011;59840;52.122;5.404;2023-05-10T00:05:36;18.25;;;8.57;;
71973;SDS011;59840;52.122;5.404;2023-05-10T00:08:02;20.95;;;9.90;;
71973;SDS011;59840;52.122;5.404;2023-05-10T00:10:29;19.35;;;9.73;;
71973;SDS011;59840;52.122;5.404;2023-05-10T00:12:56;18.88;;;9.18;;
71973;SDS011;59840;52.122;5.404;2023-05-10T00:15:22;19.03;;;9.47;;
71973;SDS011;59840;52.122;5.404;2023-05-10T00:17:49;19.98;;;10.00;;
71973;SDS011;59840;52.122;5.404;2023-05-10T00:20:15;20.77;;;10.48;;
71973;SDS011;59840;52.122;5.404;2023-05-10T00:22:43;21.80;;;10.93;;
71973;SDS011;59840;52.122;5.404;2023-05-10T00:25:09;21.90;;;8.95;;
71973;SDS011;59840;52.122;5.404;2023-05-10T00:27:36;22.37;;;10.90;;
71973;SDS011;59840;52.122;5.404;2023-05-10T00:30:03;23.85;;;10.32;;
71973;SDS011;59840;52.122;5.404;2023-05-10T00:32:30;22.95;;;10.45;;
71973;SDS011;59840;52.122;5.404;2023-05-10T00:34:56;16.70;;;8.93;;
71973;SDS011;59840;52.122;5.404;2023-05-10T00:37:23;15.70;;;8.25;;
71973;SDS011;59840;52.122;5.404;2023-05-10T00:39:49;17.53;;;8.17;;
71973;SDS011;59840;52.122;5.404;2023-05-10T00:42:16;19.38;;;9.27;;
71973;SDS011;59840;52.122;5.404;2023-05-10T00:44:42;23.15;;;10.68;;
71973;SDS011;59840;52.122;5.404;2023-05-10T00:47:09;25.58;;;11.38;;
71973;SDS011;59840;52.122;5.404;2023-05-10T00:49:36;27.88;;;11.23;;
71973;SDS011;59840;52.122;5.404;2023-05-10T00:52:03;30.90;;;12.90;;
71973;SDS011;59840;52.122;5.404;2023-05-10T00:54:29;30.42;;;13.48;;
71973;SDS011;59840;52.122;5.404;2023-05-10T00:56:56;32.53;;;14.32;;
71973;SDS011;59840;52.122;5.404;2023-05-10T00:59:23;37.75;;;15.15;;
71973;SDS011;59840;52.122;5.404;2023-05-10T01:01:50;32.90;;;14.00;;
71973;SDS011;59840;52.122;5.404;2023-05-10T01:04:17;35.73;;;15.33;;
71973;SDS011;59840;52.122;5.404;2023-05-10T01:06:46;37.10;;;14.95;;
71973;SDS011;59840;52.122;5.404;2023-05-10T01:09:12;34.75;;;14.43;;
71973;SDS011;59840;52.122;5.404;2023-05-10T01:11:39;33.80;;;14.48;;
71973;SDS011;59840;52.122;5.404;2023-05-10T01:14:06;32.90;;;13.52;;
71973;SDS011;59840;52.122;5.404;2023-05-10T01:16:35;33.33;;;14.80;;
71973;SDS011;59840;52.122;5.404;2023-05-10T01:19:05;35.67;;;15.63;;
71973;SDS011;59840;52.122;5.404;2023-05-10T01:21:43;34.88;;;14.65;;
71973;SDS011;59840;52.122;5.404;2023-05-10T01:35:02;36.40;;;14.30;;
71973;SDS011;59840;52.122;5.404;2023-05-10T01:38:18;37.20;;;13.77;;
71973;SDS011;59840;52.122;5.404;2023-05-10T01:43:19;37.40;;;15.00;;
71973;SDS011;59840;52.122;5.404;2023-05-10T01:45:55;35.80;;;14.25;;
71973;SDS011;59840;52.122;5.404;2023-05-10T01:48:39;37.28;;;14.57;;
71973;SDS011;59840;52.122;5.404;2023-05-10T01:51:14;36.92;;;15.00;;
71973;SDS011;59840;52.122;5.404;2023-05-10T01:53:44;40.25;;;14.85;;
71973;SDS011;59840;52.122;5.404;2023-05-10T01:56:14;35.40;;;15.00;;
71973;SDS011;59840;52.122;5.404;2023-05-10T01:58:43;38.78;;;14.32;;
71973;SDS011;59840;52.122;5.404;2023-05-10T02:01:13;39.30;;;15.57;;
71973;SDS011;59840;52.122;5.404;2023-05-10T02:03:41;39.42;;;15.02;;
71973;SDS011;59840;52.122;5.404;2023-05-10T02:06:10;37.03;;;15.45;;
71973;SDS011;59840;52.122;5.404;2023-05-10T02:08:38;36.03;;;13.90;;
71973;SDS011;59840;52.122;5.404;2023-05-10T02:11:07;35.85;;;15.13;;
71973;SDS011;59840;52.122;5.404;2023-05-10T02:13:37;40.97;;;15.68;;
71973;SDS011;59840;52.122;5.404;2023-05-10T02:16:05;37.08;;;15.70;;
71973;SDS011;59840;52.122;5.404;2023-05-10T02:18:33;33.88;;;14.23;;
71973;SDS011;59840;52.122;5.404;2023-05-10T02:21:02;37.33;;;13.70;;
71973;SDS011;59840;52.122;5.404;2023-05-10T02:23:29;42.72;;;15.57;;
71973;SDS011;59840;52.122;5.404;2023-05-10T02:25:57;41.22;;;15.95;;
71973;SDS011;59840;52.122;5.404;2023-05-10T02:28:26;38.65;;;15.25;;
71973;SDS011;59840;52.122;5.404;2023-05-10T02:30:54;38.30;;;15.70;;
71973;SDS011;59840;52.122;5.404;2023-05-10T02:33:21;45.53;;;15.90;;
71973;SDS011;59840;52.122;5.404;2023-05-10T02:35:48;46.28;;;15.93;;
71973;SDS011;59840;52.122;5.404;2023-05-10T02:38:16;40.83;;;15.38;;
71973;SDS011;59840;52.122;5.404;2023-05-10T02:40:46;39.00;;;14.80;;
71973;SDS011;59840;52.122;5.404;2023-05-10T02:43:14;42.47;;;15.15;;
71973;SDS011;59840;52.122;5.404;2023-05-10T02:45:43;37.43;;;14.20;;
71973;SDS011;59840;52.122;5.404;2023-05-10T02:48:13;42.75;;;16.75;;
71973;SDS011;59840;52.122;5.404;2023-05-10T02:50:40;39.85;;;15.15;;
71973;SDS011;59840;52.122;5.404;2023-05-10T02:53:11;40.53;;;15.35;;
71973;SDS011;59840;52.122;5.404;2023-05-10T02:55:45;48.15;;;16.63;;
71973;SDS011;59840;52.122;5.404;2023-05-10T02:58:16;41.40;;;16.37;;
71973;SDS011;59840;52.122;5.404;2023-05-10T03:00:45;43.38;;;16.45;;
71973;SDS011;59840;52.122;5.404;2023-05-10T03:03:12;46.00;;;16.67;;
71973;SDS011;59840;52.122;5.404;2023-05-10T03:05:39;48.80;;;16.98;;
71973;SDS011;59840;52.122;5.404;2023-05-10T03:08:05;48.33;;;17.17;;
71973;SDS011;59840;52.122;5.404;2023-05-10T03:10:32;58.50;;;18.40;;
71973;SDS011;59840;52.122;5.404;2023-05-10T03:18:21;49.45;;;17.13;;
71973;SDS011;59840;52.122;5.404;2023-05-10T03:20:50;58.42;;;18.33;;
71973;SDS011;59840;52.122;5.404;2023-05-10T03:23:25;59.03;;;18.07;;
71973;SDS011;59840;52.122;5.404;2023-05-10T03:25:57;56.40;;;17.45;;
71973;SDS011;59840;52.122;5.404;2023-05-10T03:28:25;56.03;;;17.30;;
71973;SDS011;59840;52.122;5.404;2023-05-10T03:30:53;58.00;;;17.70;;
71973;SDS011;59840;52.122;5.404;2023-05-10T03:33:21;51.60;;;16.42;;
71973;SDS011;59840;52.122;5.404;2023-05-10T03:35:47;49.27;;;16.17;;
71973;SDS011;59840;52.122;5.404;2023-05-10T03:38:14;56.95;;;18.35;;
71973;SDS011;59840;52.122;5.404;2023-05-10T03:40:40;58.65;;;17.02;;
71973;SDS011;59840;52.122;5.404;2023-05-10T03:43:07;53.03;;;17.13;;
71973;SDS011;59840;52.122;5.404;2023-05-10T03:45:34;58.20;;;17.50;;
71973;SDS011;59840;52.122;5.404;2023-05-10T03:48:00;53.10;;;16.33;;
71973;SDS011;59840;52.122;5.404;2023-05-10T03:50:27;56.22;;;17.23;;
71973;SDS011;59840;52.122;5.404;2023-05-10T03:52:54;60.25;;;18.33;;
71973;SDS011;59840;52.122;5.404;2023-05-10T03:55:21;58.53;;;17.95;;
71973;SDS011;59840;52.122;5.404;2023-05-10T03:57:48;56.10;;;16.70;;
71973;SDS011;59840;52.122;5.404;2023-05-10T04:00:16;63.10;;;18.47;;
71973;SDS011;59840;52.122;5.404;2023-05-10T04:02:43;53.75;;;17.75;;
71973;SDS011;59840;52.122;5.404;2023-05-10T04:05:11;51.22;;;17.50;;
71973;SDS011;59840;52.122;5.404;2023-05-10T04:07:38;55.40;;;16.80;;
71973;SDS011;59840;52.122;5.404;2023-05-10T04:10:05;56.20;;;17.33;;
71973;SDS011;59840;52.122;5.404;2023-05-10T04:12:32;45.47;;;15.93;;
71973;SDS011;59840;52.122;5.404;2023-05-10T04:14:59;52.63;;;17.33;;
71973;SDS011;59840;52.122;5.404;2023-05-10T04:17:25;54.08;;;16.23;;
71973;SDS011;59840;52.122;5.404;2023-05-10T04:19:52;47.00;;;14.68;;
71973;SDS011;59840;52.122;5.404;2023-05-10T04:22:20;54.47;;;16.15;;
71973;SDS011;59840;52.122;5.404;2023-05-10T04:24:47;52.90;;;16.00;;
71973;SDS011;59840;52.122;5.404;2023-05-10T04:27:13;50.65;;;16.27;;
71973;SDS011;59840;52.122;5.404;2023-05-10T04:29:40;54.47;;;15.75;;
71973;SDS011;59840;52.122;5.404;2023-05-10T04:32:07;48.75;;;15.48;;
71973;SDS011;59840;52.122;5.404;2023-05-10T04:34:34;56.35;;;16.35;;
71973;SDS011;59840;52.122;5.404;2023-05-10T04:37:00;44.67;;;16.00;;
71973;SDS011;59840;52.122;5.404;2023-05-10T04:39:27;44.35;;;14.98;;
71973;SDS011;59840;52.122;5.404;2023-05-10T04:41:53;47.00;;;15.45;;
71973;SDS011;59840;52.122;5.404;2023-05-10T04:44:20;52.58;;;15.75;;
71973;SDS011;59840;52.122;5.404;2023-05-10T04:46:47;56.22;;;16.52;;
71973;SDS011;59840;52.122;5.404;2023-05-10T04:49:13;45.90;;;14.37;;
71973;SDS011;59840;52.122;5.404;2023-05-10T04:51:40;55.55;;;16.23;;
71973;SDS011;59840;52.122;5.404;2023-05-10T04:54:07;50.75;;;15.95;;
71973;SDS011;59840;52.122;5.404;2023-05-10T04:56:33;51.08;;;16.95;;
71973;SDS011;59840;52.122;5.404;2023-05-10T04:59:00;46.88;;;16.15;;
71973;SDS011;59840;52.122;5.404;2023-05-10T05:01:26;52.37;;;15.67;;
71973;SDS011;59840;52.122;5.404;2023-05-10T05:03:55;50.47;;;15.77;;
71973;SDS011;59840;52.122;5.404;2023-05-10T05:06:22;59.38;;;16.67;;
71973;SDS011;59840;52.122;5.404;2023-05-10T05:08:51;52.50;;;16.13;;
71973;SDS011;59840;52.122;5.404;2023-05-10T05:11:17;55.47;;;18.08;;
71973;SDS011;59840;52.122;5.404;2023-05-10T05:13:44;47.87;;;16.30;;
71973;SDS011;59840;52.122;5.404;2023-05-10T05:16:10;50.95;;;16.30;;
71973;SDS011;59840;52.122;5.404;2023-05-10T05:18:37;63.30;;;17.20;;
71973;SDS011;59840;52.122;5.404;2023-05-10T05:21:14;55.05;;;16.23;;
71973;SDS011;59840;52.122;5.404;2023-05-10T05:23:42;57.65;;;17.45;;
71973;SDS011;59840;52.122;5.404;2023-05-10T05:26:09;54.30;;;16.33;;
71973;SDS011;59840;52.122;5.404;2023-05-10T05:28:36;56.28;;;16.75;;
71973;SDS011;59840;52.122;5.404;2023-05-10T05:31:04;56.13;;;17.80;;
71973;SDS011;59840;52.122;5.404;2023-05-10T05:33:31;61.03;;;17.58;;
71973;SDS011;59840;52.122;5.404;2023-05-10T05:35:59;54.88;;;16.92;;
71973;SDS011;59840;52.122;5.404;2023-05-10T05:38:27;56.77;;;17.63;;
71973;SDS011;59840;52.122;5.404;2023-05-10T05:40:54;55.10;;;18.10;;
71973;SDS011;59840;52.122;5.404;2023-05-10T05:43:20;53.78;;;18.15;;
71973;SDS011;59840;52.122;5.404;2023-05-10T05:45:59;46.83;;;16.25;;
71973;SDS011;59840;52.122;5.404;2023-05-10T05:48:26;49.58;;;17.35;;
71973;SDS011;59840;52.122;5.404;2023-05-10T05:50:56;53.63;;;16.90;;
71973;SDS011;59840;52.122;5.404;2023-05-10T05:53:23;56.10;;;17.80;;
71973;SDS011;59840;52.122;5.404;2023-05-10T05:58:24;50.75;;;17.90;;
71973;SDS011;59840;52.122;5.404;2023-05-10T06:00:51;50.58;;;18.33;;
71973;SDS011;59840;52.122;5.404;2023-05-10T06:03:18;51.77;;;16.40;;
71973;SDS011;59840;52.122;5.404;2023-05-10T06:05:45;45.90;;;15.88;;
71973;SDS011;59840;52.122;5.404;2023-05-10T06:08:12;42.83;;;15.43;;
71973;SDS011;59840;52.122;5.404;2023-05-10T06:10:39;41.70;;;14.75;;
71973;SDS011;59840;52.122;5.404;2023-05-10T06:13:05;48.72;;;16.15;;
71973;SDS011;59840;52.122;5.404;2023-05-10T06:15:32;40.87;;;15.50;;
71973;SDS011;59840;52.122;5.404;2023-05-10T06:17:58;46.00;;;15.98;;
71973;SDS011;59840;52.122;5.404;2023-05-10T06:20:25;44.25;;;16.33;;
71973;SDS011;59840;52.122;5.404;2023-05-10T06:22:52;42.78;;;15.80;;
71973;SDS011;59840;52.122;5.404;2023-05-10T06:25:19;40.30;;;15.43;;
71973;SDS011;59840;52.122;5.404;2023-05-10T06:27:45;44.30;;;15.67;;
71973;SDS011;59840;52.122;5.404;2023-05-10T06:30:17;44.75;;;15.40;;
71973;SDS011;59840;52.122;5.404;2023-05-10T06:32:44;43.08;;;14.30;;
71973;SDS011;59840;52.122;5.404;2023-05-10T06:35:11;43.00;;;14.48;;
71973;SDS011;59840;52.122;5.404;2023-05-10T06:37:38;39.30;;;14.48;;
71973;SDS011;59840;52.122;5.404;2023-05-10T06:40:05;39.67;;;13.77;;
71973;SDS011;59840;52.122;5.404;2023-05-10T06:42:32;37.08;;;13.73;;
71973;SDS011;59840;52.122;5.404;2023-05-10T06:44:58;41.88;;;13.65;;
71973;SDS011;59840;52.122;5.404;2023-05-10T06:47:25;34.67;;;12.13;;
71973;SDS011;59840;52.122;5.404;2023-05-10T06:49:52;34.40;;;11.88;;
71973;SDS011;59840;52.122;5.404;2023-05-10T06:52:18;34.70;;;12.43;;
71973;SDS011;59840;52.122;5.404;2023-05-10T06:54:45;32.53;;;11.48;;
71973;SDS011;59840;52.122;5.404;2023-05-10T06:57:11;27.75;;;11.85;;
71973;SDS011;59840;52.122;5.404;2023-05-10T06:59:56;31.33;;;10.20;;
71973;SDS011;59840;52.122;5.404;2023-05-10T07:02:22;27.98;;;10.80;;
71973;SDS011;59840;52.122;5.404;2023-05-10T07:04:49;23.23;;;9.63;;
71973;SDS011;59840;52.122;5.404;2023-05-10T07:07:18;22.00;;;8.15;;
71973;SDS011;59840;52.122;5.404;2023-05-10T07:09:45;18.95;;;8.80;;
71973;SDS011;59840;52.122;5.404;2023-05-10T07:12:12;20.90;;;7.97;;
71973;SDS011;59840;52.122;5.404;2023-05-10T07:14:40;19.95;;;6.90;;
71973;SDS011;59840;52.122;5.404;2023-05-10T07:17:08;19.00;;;7.30;;
71973;SDS011;59840;52.122;5.404;2023-05-10T07:19:35;17.08;;;6.78;;
71973;SDS011;59840;52.122;5.404;2023-05-10T07:22:02;17.10;;;7.40;;
71973;SDS011;59840;52.122;5.404;2023-05-10T07:24:29;17.40;;;7.25;;
71973;SDS011;59840;52.122;5.404;2023-05-10T07:26:57;16.17;;;6.45;;
71973;SDS011;59840;52.122;5.404;2023-05-10T07:29:23;13.77;;;6.23;;
71973;SDS011;59840;52.122;5.404;2023-05-10T07:31:50;13.18;;;5.93;;
71973;SDS011;59840;52.122;5.404;2023-05-10T07:34:17;13.88;;;5.75;;
71973;SDS011;59840;52.122;5.404;2023-05-10T07:36:43;15.20;;;6.70;;
71973;SDS011;59840;52.122;5.404;2023-05-10T07:39:10;15.10;;;6.88;;
71973;SDS011;59840;52.122;5.404;2023-05-10T07:41:41;11.10;;;6.03;;
71973;SDS011;59840;52.122;5.404;2023-05-10T07:44:08;14.18;;;7.00;;
71973;SDS011;59840;52.122;5.404;2023-05-10T07:46:34;12.15;;;6.57;;
71973;SDS011;59840;52.122;5.404;2023-05-10T07:49:01;11.80;;;6.07;;
71973;SDS011;59840;52.122;5.404;2023-05-10T07:51:27;9.50;;;5.70;;
71973;SDS011;59840;52.122;5.404;2023-05-10T07:53:54;15.30;;;6.37;;
71973;SDS011;59840;52.122;5.404;2023-05-10T07:56:28;14.50;;;6.45;;
71973;SDS011;59840;52.122;5.404;2023-05-10T07:58:56;11.95;;;6.00;;
71973;SDS011;59840;52.122;5.404;2023-05-10T08:01:23;13.00;;;5.75;;
71973;SDS011;59840;52.122;5.404;2023-05-10T08:03:50;11.88;;;6.00;;
71973;SDS011;59840;52.122;5.404;2023-05-10T08:06:17;11.27;;;5.83;;
71973;SDS011;59840;52.122;5.404;2023-05-10T08:08:45;8.98;;;5.18;;
71973;SDS011;59840;52.122;5.404;2023-05-10T08:11:18;12.93;;;5.57;;
71973;SDS011;59840;52.122;5.404;2023-05-10T08:13:47;10.68;;;5.93;;
71973;SDS011;59840;52.122;5.404;2023-05-10T08:16:15;12.10;;;6.20;;
71973;SDS011;59840;52.122;5.404;2023-05-10T08:18:43;11.10;;;6.13;;
71973;SDS011;59840;52.122;5.404;2023-05-10T08:21:15;10.75;;;6.60;;
71973;SDS011;59840;52.122;5.404;2023-05-10T08:23:42;10.15;;;5.78;;
71973;SDS011;59840;52.122;5.404;2023-05-10T08:26:10;10.32;;;6.30;;
71973;SDS011;59840;52.122;5.404;2023-05-10T08:28:37;10.77;;;6.47;;
71973;SDS011;59840;52.122;5.404;2023-05-10T08:31:04;14.07;;;7.10;;
71973;SDS011;59840;52.122;5.404;2023-05-10T08:33:32;12.13;;;6.32;;
71973;SDS011;59840;52.122;5.404;2023-05-10T08:35:58;14.43;;;6.60;;
71973;SDS011;59840;52.122;5.404;2023-05-10T08:38:25;16.02;;;7.15;;
71973;SDS011;59840;52.122;5.404;2023-05-10T08:40:52;11.57;;;6.78;;
71973;SDS011;59840;52.122;5.404;2023-05-10T08:43:23;14.07;;;6.60;;
71973;SDS011;59840;52.122;5.404;2023-05-10T08:45:54;11.23;;;6.30;;
71973;SDS011;59840;52.122;5.404;2023-05-10T08:48:23;11.73;;;6.78;;
71973;SDS011;59840;52.122;5.404;2023-05-10T08:50:52;11.85;;;6.93;;
71973;SDS011;59840;52.122;5.404;2023-05-10T08:53:20;11.15;;;6.82;;
71973;SDS011;59840;52.122;5.404;2023-05-10T08:55:51;12.93;;;7.33;;
71973;SDS011;59840;52.122;5.404;2023-05-10T08:58:18;14.18;;;6.97;;
71973;SDS011;59840;52.122;5.404;2023-05-10T09:00:45;11.93;;;6.93;;
71973;SDS011;59840;52.122;5.404;2023-05-10T09:03:15;12.23;;;6.75;;
71973;SDS011;59840;52.122;5.404;2023-05-10T09:05:41;12.88;;;6.88;;
71973;SDS011;59840;52.122;5.404;2023-05-10T09:08:08;11.73;;;7.67;;
71973;SDS011;59840;52.122;5.404;2023-05-10T09:10:35;11.13;;;6.90;;
71973;SDS011;59840;52.122;5.404;2023-05-10T09:13:03;11.30;;;6.68;;
71973;SDS011;59840;52.122;5.404;2023-05-10T09:15:30;7.63;;;5.43;;
71973;SDS011;59840;52.122;5.404;2023-05-10T09:17:56;10.60;;;5.63;;
71973;SDS011;59840;52.122;5.404;2023-05-10T09:20:25;10.70;;;6.40;;
71973;SDS011;59840;52.122;5.404;2023-05-10T09:22:52;8.23;;;5.22;;
71973;SDS011;59840;52.122;5.404;2023-05-10T09:25:18;8.30;;;5.28;;
71973;SDS011;59840;52.122;5.404;2023-05-10T09:27:46;8.27;;;5.13;;
71973;SDS011;59840;52.122;5.404;2023-05-10T09:30:24;7.43;;;4.57;;
71973;SDS011;59840;52.122;5.404;2023-05-10T09:32:58;8.83;;;4.83;;
71973;SDS011;59840;52.122;5.404;2023-05-10T09:35:26;6.80;;;4.40;;
71973;SDS011;59840;52.122;5.404;2023-05-10T09:37:57;8.68;;;4.47;;
71973;SDS011;59840;52.122;5.404;2023-05-10T09:40:26;6.63;;;3.90;;
71973;SDS011;59840;52.122;5.404;2023-05-10T09:42:57;6.03;;;4.40;;
71973;SDS011;59840;52.122;5.404;2023-05-10T09:45:25;6.17;;;4.10;;
71973;SDS011;59840;52.122;5.404;2023-05-10T09:47:54;7.32;;;4.03;;
71973;SDS011;59840;52.122;5.404;2023-05-10T09:50:22;6.63;;;3.70;;
71973;SDS011;59840;52.122;5.404;2023-05-10T09:52:52;6.38;;;3.15;;
71973;SDS011;59840;52.122;5.404;2023-05-10T09:55:21;5.70;;;3.63;;
71973;SDS011;59840;52.122;5.404;2023-05-10T09:57:49;5.57;;;3.37;;
71973;SDS011;59840;52.122;5.404;2023-05-10T10:00:25;6.38;;;3.28;;
71973;SDS011;59840;52.122;5.404;2023-05-10T10:02:58;5.68;;;3.10;;
71973;SDS011;59840;52.122;5.404;2023-05-10T10:07:58;4.05;;;3.10;;
71973;SDS011;59840;52.122;5.404;2023-05-10T10:10:27;4.37;;;2.83;;
71973;SDS011;59840;52.122;5.404;2023-05-10T10:12:54;3.70;;;3.05;;
71973;SDS011;59840;52.122;5.404;2023-05-10T10:15:21;5.30;;;3.00;;
71973;SDS011;59840;52.122;5.404;2023-05-10T10:17:49;4.05;;;2.92;;
71973;SDS011;59840;52.122;5.404;2023-05-10T10:20:16;5.75;;;3.10;;
71973;SDS011;59840;52.122;5.404;2023-05-10T10:22:45;5.83;;;3.33;;
71973;SDS011;59840;52.122;5.404;2023-05-10T10:25:13;4.60;;;3.30;;
71973;SDS011;59840;52.122;5.404;2023-05-10T10:30:28;6.28;;;4.25;;
71973;SDS011;59840;52.122;5.404;2023-05-10T10:33:16;5.55;;;3.47;;
71973;SDS011;59840;52.122;5.404;2023-05-10T10:35:53;4.93;;;3.43;;
71973;SDS011;59840;52.122;5.404;2023-05-10T10:38:21;5.15;;;3.88;;
71973;SDS011;59840;52.122;5.404;2023-05-10T10:40:49;6.78;;;4.20;;
71973;SDS011;59840;52.122;5.404;2023-05-10T10:43:29;10.48;;;4.40;;
71973;SDS011;59840;52.122;5.404;2023-05-10T10:46:12;8.35;;;4.38;;
71973;SDS011;59840;52.122;5.404;2023-05-10T10:48:48;4.77;;;3.43;;
71973;SDS011;59840;52.122;5.404;2023-05-10T10:51:17;5.82;;;3.88;;
71973;SDS011;59840;52.122;5.404;2023-05-10T10:53:44;6.40;;;3.55;;
71973;SDS011;59840;52.122;5.404;2023-05-10T10:56:11;4.45;;;3.42;;
71973;SDS011;59840;52.122;5.404;2023-05-10T10:58:41;5.43;;;3.42;;
71973;SDS011;59840;52.122;5.404;2023-05-10T11:01:18;3.63;;;3.13;;
71973;SDS011;59840;52.122;5.404;2023-05-10T11:06:30;3.97;;;2.97;;
71973;SDS011;59840;52.122;5.404;2023-05-10T11:08:58;8.10;;;3.67;;
71973;SDS011;59840;52.122;5.404;2023-05-10T11:11:26;5.93;;;3.50;;
71973;SDS011;59840;52.122;5.404;2023-05-10T11:13:52;6.30;;;3.53;;
71973;SDS011;59840;52.122;5.404;2023-05-10T11:16:20;5.90;;;3.30;;
71973;SDS011;59840;52.122;5.404;2023-05-10T11:19:03;4.38;;;3.58;;
71973;SDS011;59840;52.122;5.404;2023-05-10T11:21:33;6.10;;;3.67;;
71973;SDS011;59840;52.122;5.404;2023-05-10T11:24:14;5.10;;;3.40;;
71973;SDS011;59840;52.122;5.404;2023-05-10T11:26:43;5.30;;;2.70;;
71973;SDS011;59840;52.122;5.404;2023-05-10T11:29:10;5.70;;;3.25;;
71973;SDS011;59840;52.122;5.404;2023-05-10T11:31:43;4.85;;;3.03;;
71973;SDS011;59840;52.122;5.404;2023-05-10T11:34:11;3.10;;;2.75;;
71973;SDS011;59840;52.122;5.404;2023-05-10T11:36:38;4.10;;;2.70;;
71973;SDS011;59840;52.122;5.404;2023-05-10T11:39:06;5.67;;;2.50;;
71973;SDS011;59840;52.122;5.404;2023-05-10T11:41:33;4.70;;;3.00;;
71973;SDS011;59840;52.122;5.404;2023-05-10T11:44:00;4.63;;;3.00;;
71973;SDS011;59840;52.122;5.404;2023-05-10T11:46:28;5.13;;;2.75;;
71973;SDS011;59840;52.122;5.404;2023-05-10T11:48:59;5.35;;;2.42;;
71973;SDS011;59840;52.122;5.404;2023-05-10T11:51:36;4.27;;;1.90;;
71973;SDS011;59840;52.122;5.404;2023-05-10T11:54:06;6.20;;;2.30;;
71973;SDS011;59840;52.122;5.404;2023-05-10T11:56:37;3.90;;;1.95;;
71973;SDS011;59840;52.122;5.404;2023-05-10T11:59:07;3.90;;;2.10;;
71973;SDS011;59840;52.122;5.404;2023-05-10T12:01:34;2.60;;;2.00;;
71973;SDS011;59840;52.122;5.404;2023-05-10T12:04:02;4.07;;;2.40;;
71973;SDS011;59840;52.122;5.404;2023-05-10T12:06:30;3.30;;;2.25;;
71973;SDS011;59840;52.122;5.404;2023-05-10T12:08:58;3.25;;;2.40;;
71973;SDS011;59840;52.122;5.404;2023-05-10T12:11:26;3.85;;;2.30;;
71973;SDS011;59840;52.122;5.404;2023-05-10T12:13:54;3.88;;;2.00;;
71973;SDS011;59840;52.122;5.404;2023-05-10T12:16:23;3.53;;;2.03;;
71973;SDS011;59840;52.122;5.404;2023-05-10T12:18:51;2.30;;;1.77;;
71973;SDS011;59840;52.122;5.404;2023-05-10T12:21:22;4.43;;;2.42;;
71973;SDS011;59840;52.122;5.404;2023-05-10T12:23:52;3.83;;;2.05;;
71973;SDS011;59840;52.122;5.404;2023-05-10T12:26:24;3.92;;;2.10;;
71973;SDS011;59840;52.122;5.404;2023-05-10T12:28:52;4.67;;;2.67;;
71973;SDS011;59840;52.122;5.404;2023-05-10T12:31:19;3.83;;;2.20;;
71973;SDS011;59840;52.122;5.404;2023-05-10T12:33:46;4.07;;;2.15;;
71973;SDS011;59840;52.122;5.404;2023-05-10T12:36:15;4.47;;;2.33;;
71973;SDS011;59840;52.122;5.404;2023-05-10T12:38:43;3.50;;;2.00;;
71973;SDS011;59840;52.122;5.404;2023-05-10T12:41:15;3.13;;;1.83;;
71973;SDS011;59840;52.122;5.404;2023-05-10T12:43:44;2.95;;;2.10;;
71973;SDS011;59840;52.122;5.404;2023-05-10T12:46:15;4.03;;;1.88;;
71973;SDS011;59840;52.122;5.404;2023-05-10T12:48:43;2.72;;;1.88;;
71973;SDS011;59840;52.122;5.404;2023-05-10T12:51:11;3.15;;;2.05;;
71973;SDS011;59840;52.122;5.404;2023-05-10T12:53:39;2.30;;;1.83;;
71973;SDS011;59840;52.122;5.404;2023-05-10T12:56:09;2.58;;;1.65;;
71973;SDS011;59840;52.122;5.404;2023-05-10T12:58:36;2.00;;;1.35;;
71973;SDS011;59840;52.122;5.404;2023-05-10T13:01:02;2.50;;;1.33;;
71973;SDS011;59840;52.122;5.404;2023-05-10T13:03:31;2.85;;;1.20;;
71973;SDS011;59840;52.122;5.404;2023-05-10T13:05:57;2.13;;;1.30;;
71973;SDS011;59840;52.122;5.404;2023-05-10T13:08:24;2.58;;;1.40;;
71973;SDS011;59840;52.122;5.404;2023-05-10T13:10:51;1.73;;;1.00;;
71973;SDS011;59840;52.122;5.404;2023-05-10T13:13:17;2.13;;;0.90;;
71973;SDS011;59840;52.122;5.404;2023-05-10T13:15:44;5.85;;;2.47;;
71973;SDS011;59840;52.122;5.404;2023-05-10T13:18:11;2.83;;;2.23;;
71973;SDS011;59840;52.122;5.404;2023-05-10T13:20:37;3.08;;;2.58;;
71973;SDS011;59840;52.122;5.404;2023-05-10T13:23:04;3.45;;;3.15;;
71973;SDS011;59840;52.122;5.404;2023-05-10T13:25:30;5.60;;;3.85;;
71973;SDS011;59840;52.122;5.404;2023-05-10T13:27:57;4.85;;;3.25;;
71973;SDS011;59840;52.122;5.404;2023-05-10T13:30:24;5.60;;;3.17;;
71973;SDS011;59840;52.122;5.404;2023-05-10T13:32:50;4.85;;;2.50;;
71973;SDS011;59840;52.122;5.404;2023-05-10T13:35:17;7.70;;;2.75;;
71973;SDS011;59840;52.122;5.404;2023-05-10T13:37:44;9.07;;;2.55;;
71973;SDS011;59840;52.122;5.404;2023-05-10T13:40:11;5.93;;;2.28;;
71973;SDS011;59840;52.122;5.404;2023-05-10T13:42:37;3.87;;;2.43;;
71973;SDS011;59840;52.122;5.404;2023-05-10T13:45:04;6.78;;;2.70;;
71973;SDS011;59840;52.122;5.404;2023-05-10T13:47:31;7.03;;;2.20;;
71973;SDS011;59840;52.122;5.404;2023-05-10T13:49:58;4.65;;;2.53;;
71973;SDS011;59840;52.122;5.404;2023-05-10T13:52:25;7.43;;;3.38;;
71973;SDS011;59840;52.122;5.404;2023-05-10T13:54:52;8.10;;;3.30;;
71973;SDS011;59840;52.122;5.404;2023-05-10T13:57:21;6.60;;;3.30;;
71973;SDS011;59840;52.122;5.404;2023-05-10T13:59:48;7.18;;;3.60;;
71973;SDS011;59840;52.122;5.404;2023-05-10T14:02:15;6.35;;;3.05;;
71973;SDS011;59840;52.122;5.404;2023-05-10T14:04:41;6.22;;;3.22;;
71973;SDS011;59840;52.122;5.404;2023-05-10T14:07:08;7.97;;;3.60;;
71973;SDS011;59840;52.122;5.404;2023-05-10T14:09:34;7.15;;;3.40;;
71973;SDS011;59840;52.122;5.404;2023-05-10T14:12:01;6.80;;;3.00;;
71973;SDS011;59840;52.122;5.404;2023-05-10T14:14:28;8.32;;;3.60;;
71973;SDS011;59840;52.122;5.404;2023-05-10T14:16:55;6.50;;;3.50;;
71973;SDS011;59840;52.122;5.404;2023-05-10T14:19:22;6.63;;;3.43;;
71973;SDS011;59840;52.122;5.404;2023-05-10T14:21:49;7.07;;;3.53;;
71973;SDS011;59840;52.122;5.404;2023-05-10T14:24:15;7.60;;;3.70;;
71973;SDS011;59840;52.122;5.404;2023-05-10T14:26:42;5.20;;;3.30;;
71973;SDS011;59840;52.122;5.404;2023-05-10T14:29:08;5.95;;;3.22;;
71973;SDS011;59840;52.122;5.404;2023-05-10T14:31:37;7.80;;;3.60;;
71973;SDS011;59840;52.122;5.404;2023-05-10T14:34:04;9.00;;;4.00;;
71973;SDS011;59840;52.122;5.404;2023-05-10T14:36:32;7.40;;;3.70;;
71973;SDS011;59840;52.122;5.404;2023-05-10T14:38:58;7.60;;;3.55;;
71973;SDS011;59840;52.122;5.404;2023-05-10T14:41:25;7.38;;;3.63;;
71973;SDS011;59840;52.122;5.404;2023-05-10T14:43:53;6.20;;;3.73;;
71973;SDS011;59840;52.122;5.404;2023-05-10T14:46:20;6.47;;;3.95;;
71973;SDS011;59840;52.122;5.404;2023-05-10T14:48:47;8.93;;;4.65;;
71973;SDS011;59840;52.122;5.404;2023-05-10T14:51:13;7.38;;;4.15;;
71973;SDS011;59840;52.122;5.404;2023-05-10T14:53:40;5.50;;;3.95;;
71973;SDS011;59840;52.122;5.404;2023-05-10T14:56:06;7.67;;;3.80;;
71973;SDS011;59840;52.122;5.404;2023-05-10T14:58:33;7.40;;;4.32;;
71973;SDS011;59840;52.122;5.404;2023-05-10T15:01:00;8.35;;;3.70;;
71973;SDS011;59840;52.122;5.404;2023-05-10T15:03:27;8.23;;;4.50;;
71973;SDS011;59840;52.122;5.404;2023-05-10T15:05:55;8.98;;;4.78;;
71973;SDS011;59840;52.122;5.404;2023-05-10T15:08:23;9.00;;;4.17;;